createdAt,value
2016-07-06T00:00:25.102Z,14.33
2016-07-06T00:01:25.070Z,14.35
2016-07-06T00:02:25.055Z,14.37
2016-07-06T00:03:25.021Z,14.33
2016-07-06T00:04:25.012Z,14.29
2016-07-06T00:05:24.986Z,14.28
2016-07-06T00:06:24.981Z,14.3
2016-07-06T00:07:24.940Z,14.3
2016-07-06T00:08:24.920Z,14.32
2016-07-06T00:09:24.899Z,14.25
2016-07-06T00:10:24.873Z,14.26
2016-07-06T00:11:24.859Z,14.2
2016-07-06T00:12:24.828Z,14.25
2016-07-06T00:13:24.808Z,14.17
2016-07-06T00:14:24.792Z,14.22
2016-07-06T00:15:24.765Z,14.25
2016-07-06T00:16:24.741Z,14.25
2016-07-06T00:17:24.716Z,14.26
2016-07-06T00:18:24.688Z,14.18
2016-07-06T00:19:24.672Z,14.25
2016-07-06T00:20:24.651Z,14.17
2016-07-06T00:21:24.627Z,14.17
2016-07-06T00:22:24.599Z,14.12
2016-07-06T00:23:24.580Z,14.23
2016-07-06T00:24:24.547Z,14.14
2016-07-06T00:25:24.519Z,14.14
2016-07-06T00:26:24.503Z,14.11
2016-07-06T00:27:24.479Z,14.12
2016-07-06T00:28:24.455Z,14.11
2016-07-06T00:29:24.421Z,14.11
2016-07-06T00:30:24.413Z,14.11
2016-07-06T00:31:24.399Z,14.11
2016-07-06T00:32:24.371Z,14.22
2016-07-06T00:33:24.330Z,14.22
2016-07-06T00:34:24.318Z,14.05
2016-07-06T00:35:24.306Z,14.07
2016-07-06T00:36:24.286Z,14.05
2016-07-06T00:37:24.258Z,14.08
2016-07-06T00:38:24.232Z,14.05
2016-07-06T00:39:24.218Z,14.04
2016-07-06T00:40:24.192Z,13.99
2016-07-06T00:41:24.181Z,14.05
2016-07-06T00:42:24.149Z,13.97
2016-07-06T00:43:24.126Z,14.1
2016-07-06T00:44:24.097Z,14.05
2016-07-06T00:45:24.081Z,14.03
2016-07-06T00:46:24.054Z,13.99
2016-07-06T00:47:24.035Z,14
2016-07-06T00:48:24.011Z,13.97
2016-07-06T00:49:23.991Z,14.08
2016-07-06T00:50:23.968Z,14.07
2016-07-06T00:51:23.949Z,14.07
2016-07-06T00:52:23.913Z,13.93
2016-07-06T00:53:23.889Z,13.95
2016-07-06T00:54:23.858Z,14.03
2016-07-06T00:55:23.851Z,13.99
2016-07-06T00:56:23.827Z,13.97
2016-07-06T00:57:23.810Z,13.96
2016-07-06T00:58:23.794Z,13.97
2016-07-06T00:59:23.761Z,13.96
2016-07-06T01:00:23.740Z,14
2016-07-06T01:01:23.713Z,13.97
2016-07-06T01:02:23.694Z,13.97
2016-07-06T01:03:23.671Z,13.95
2016-07-06T01:04:23.644Z,14
2016-07-06T01:05:23.621Z,13.9
2016-07-06T01:06:23.599Z,13.86
2016-07-06T01:07:23.576Z,13.92
2016-07-06T01:08:23.643Z,13.9
2016-07-06T01:09:23.673Z,13.89
2016-07-06T01:10:23.737Z,13.89
2016-07-06T01:11:23.707Z,13.95
2016-07-06T01:12:23.466Z,13.87
2016-07-06T01:13:23.441Z,13.86
2016-07-06T01:14:24.023Z,13.93
2016-07-06T01:15:23.378Z,13.86
2016-07-06T01:16:23.369Z,13.89
2016-07-06T01:17:23.341Z,13.87
2016-07-06T01:18:23.319Z,13.86
2016-07-06T01:19:23.288Z,13.86
2016-07-06T01:20:23.280Z,13.85
2016-07-06T01:21:23.239Z,13.87
2016-07-06T01:22:23.235Z,13.78
2016-07-06T01:23:23.207Z,13.86
2016-07-06T01:24:23.166Z,13.83
2016-07-06T01:25:23.160Z,13.86
2016-07-06T01:26:23.723Z,13.77
2016-07-06T01:27:23.116Z,13.85
2016-07-06T01:28:23.090Z,13.86
2016-07-06T01:29:23.062Z,13.83
2016-07-06T01:30:23.042Z,13.74
2016-07-06T01:31:23.005Z,13.72
2016-07-06T01:32:22.998Z,13.75
2016-07-06T01:33:22.958Z,13.77
2016-07-06T01:34:22.952Z,13.74
2016-07-06T01:35:22.938Z,13.74
2016-07-06T01:36:22.908Z,13.74
2016-07-06T01:37:22.893Z,13.72
2016-07-06T01:38:22.867Z,13.68
2016-07-06T01:39:22.843Z,13.7
2016-07-06T01:40:22.823Z,13.77
2016-07-06T01:41:22.796Z,13.75
2016-07-06T01:42:22.770Z,13.7
2016-07-06T01:43:22.746Z,13.67
2016-07-06T01:44:22.729Z,13.68
2016-07-06T01:45:22.702Z,13.71
2016-07-06T01:46:22.672Z,13.65
2016-07-06T01:47:22.653Z,13.68
2016-07-06T01:48:22.636Z,13.71
2016-07-06T01:49:22.618Z,13.72
2016-07-06T01:50:22.594Z,13.65
2016-07-06T01:51:22.562Z,13.71
2016-07-06T01:52:22.536Z,13.75
2016-07-06T01:53:22.506Z,13.75
2016-07-06T01:54:22.492Z,13.6
2016-07-06T01:55:22.459Z,13.72
2016-07-06T01:56:22.437Z,13.67
2016-07-06T01:57:22.420Z,13.56
2016-07-06T01:58:22.392Z,13.67
2016-07-06T01:59:22.385Z,13.63
2016-07-06T02:00:22.357Z,13.59
2016-07-06T02:01:22.334Z,13.57
2016-07-06T02:02:22.309Z,13.59
2016-07-06T02:03:22.289Z,13.63
2016-07-06T02:04:22.282Z,13.63
2016-07-06T02:05:22.237Z,13.6
2016-07-06T02:06:22.221Z,13.59
2016-07-06T02:07:22.197Z,13.57
2016-07-06T02:08:22.171Z,13.59
2016-07-06T02:09:22.146Z,13.59
2016-07-06T02:10:22.130Z,13.67
2016-07-06T02:11:22.096Z,13.57
2016-07-06T02:12:22.067Z,13.59
2016-07-06T02:13:22.049Z,13.62
2016-07-06T02:14:22.023Z,13.54
2016-07-06T02:15:22.000Z,13.52
2016-07-06T02:16:21.980Z,13.68
2016-07-06T02:17:21.960Z,13.6
2016-07-06T02:18:21.941Z,13.63
2016-07-06T02:19:21.915Z,13.57
2016-07-06T02:20:21.895Z,13.57
2016-07-06T02:21:21.868Z,13.56
2016-07-06T02:22:21.842Z,13.71
2016-07-06T02:23:21.818Z,13.65
2016-07-06T02:24:21.800Z,13.65
2016-07-06T02:25:21.778Z,13.7
2016-07-06T02:26:21.754Z,13.68
2016-07-06T02:27:21.729Z,13.68
2016-07-06T02:28:21.707Z,13.72
2016-07-06T02:29:21.686Z,13.75
2016-07-06T02:30:21.660Z,13.79
2016-07-06T02:31:21.641Z,13.75
2016-07-06T02:32:21.613Z,13.78
2016-07-06T02:33:21.582Z,13.77
2016-07-06T02:34:21.557Z,13.78
2016-07-06T02:35:21.531Z,13.75
2016-07-06T02:36:21.523Z,13.81
2016-07-06T02:37:21.494Z,13.87
2016-07-06T02:38:21.474Z,13.78
2016-07-06T02:39:21.445Z,13.85
2016-07-06T02:40:21.428Z,13.86
2016-07-06T02:41:21.407Z,13.89
2016-07-06T02:42:21.382Z,13.92
2016-07-06T02:43:21.361Z,13.85
2016-07-06T02:44:21.336Z,13.87
2016-07-06T02:45:21.304Z,13.87
2016-07-06T02:46:21.280Z,13.89
2016-07-06T02:47:21.267Z,13.87
2016-07-06T02:48:21.227Z,13.92
2016-07-06T02:49:21.211Z,13.9
2016-07-06T02:50:21.180Z,13.93
2016-07-06T02:51:21.175Z,13.89
2016-07-06T02:52:21.153Z,13.92
2016-07-06T02:53:21.131Z,13.92
2016-07-06T02:54:21.105Z,13.93
2016-07-06T02:55:21.084Z,13.9
2016-07-06T02:56:21.060Z,13.92
2016-07-06T02:57:21.038Z,13.95
2016-07-06T02:58:21.021Z,13.95
2016-07-06T02:59:21.043Z,13.87
2016-07-06T03:00:20.969Z,13.89
2016-07-06T03:01:20.949Z,13.9
2016-07-06T03:02:20.928Z,13.89
2016-07-06T03:03:20.910Z,13.89
2016-07-06T03:04:20.886Z,13.86
2016-07-06T03:05:20.862Z,13.87
2016-07-06T03:06:20.854Z,13.81
2016-07-06T03:07:20.809Z,13.78
2016-07-06T03:08:20.786Z,13.79
2016-07-06T03:09:20.761Z,13.83
2016-07-06T03:10:20.734Z,13.89
2016-07-06T03:11:20.721Z,13.85
2016-07-06T03:12:20.690Z,13.87
2016-07-06T03:13:20.664Z,13.78
2016-07-06T03:14:20.650Z,13.81
2016-07-06T03:15:20.620Z,13.81
2016-07-06T03:16:20.587Z,13.81
2016-07-06T03:17:20.570Z,13.86
2016-07-06T03:18:20.548Z,13.87
2016-07-06T03:19:20.523Z,13.96
2016-07-06T03:20:20.498Z,13.9
2016-07-06T03:21:20.475Z,13.86
2016-07-06T03:22:20.472Z,13.9
2016-07-06T03:23:20.442Z,13.87
2016-07-06T03:24:20.426Z,13.9
2016-07-06T03:25:20.391Z,14
2016-07-06T03:26:20.377Z,13.95
2016-07-06T03:27:20.360Z,13.97
2016-07-06T03:28:20.336Z,13.93
2016-07-06T03:29:20.315Z,13.93
2016-07-06T03:30:20.290Z,14
2016-07-06T03:31:20.266Z,13.99
2016-07-06T03:32:20.249Z,14.04
2016-07-06T03:33:20.225Z,13.96
2016-07-06T03:34:20.210Z,14
2016-07-06T03:35:20.181Z,14.03
2016-07-06T03:36:20.156Z,14.1
2016-07-06T03:37:20.130Z,13.97
2016-07-06T03:38:20.110Z,14.04
2016-07-06T03:39:20.087Z,13.99
2016-07-06T03:40:20.069Z,14.04
2016-07-06T03:41:20.041Z,13.97
2016-07-06T03:42:20.012Z,13.99
2016-07-06T03:43:19.987Z,14
2016-07-06T03:44:19.967Z,14.05
2016-07-06T03:45:20.545Z,14.08
2016-07-06T03:46:19.926Z,14.08
2016-07-06T03:47:19.902Z,14.05
2016-07-06T03:48:19.878Z,14.04
2016-07-06T03:49:19.846Z,14.03
2016-07-06T03:50:19.820Z,14.05
2016-07-06T03:51:19.791Z,14.08
2016-07-06T03:52:19.803Z,13.96
2016-07-06T03:53:19.763Z,14.04
2016-07-06T03:54:19.742Z,14.03
2016-07-06T03:55:19.732Z,13.99
2016-07-06T03:56:19.699Z,14.08
2016-07-06T03:57:19.675Z,14.04
2016-07-06T03:58:19.646Z,14.04
2016-07-06T03:59:19.624Z,14.05
2016-07-06T04:00:19.599Z,14
2016-07-06T04:01:19.593Z,14
2016-07-06T04:02:19.554Z,14
2016-07-06T04:03:19.546Z,14.05
2016-07-06T04:04:19.527Z,14.1
2016-07-06T04:05:19.503Z,14
2016-07-06T04:06:19.479Z,14.07
2016-07-06T04:07:19.442Z,14.03
2016-07-06T04:08:19.434Z,14.07
2016-07-06T04:09:19.399Z,14.1
2016-07-06T04:10:19.387Z,14.12
2016-07-06T04:11:19.361Z,14.12
2016-07-06T04:12:19.344Z,14.11
2016-07-06T04:13:19.317Z,14.14
2016-07-06T04:14:19.282Z,14.11
2016-07-06T04:15:19.273Z,14.15
2016-07-06T04:16:19.248Z,14.2
2016-07-06T04:17:19.228Z,14.12
2016-07-06T04:18:19.200Z,14.17
2016-07-06T04:19:19.183Z,14.22
2016-07-06T04:20:19.157Z,14.17
2016-07-06T04:21:19.128Z,14.08
2016-07-06T04:22:19.122Z,14.17
2016-07-06T04:23:19.102Z,14.2
2016-07-06T04:24:19.069Z,14.17
2016-07-06T04:25:19.052Z,14.17
2016-07-06T04:26:19.029Z,14.22
2016-07-06T04:27:18.991Z,14.22
2016-07-06T04:28:18.972Z,14.25
2016-07-06T04:29:18.938Z,14.22
2016-07-06T04:30:18.921Z,14.18
2016-07-06T04:31:18.910Z,14.22
2016-07-06T04:32:18.892Z,14.26
2016-07-06T04:33:18.858Z,14.25
2016-07-06T04:34:18.840Z,14.22
2016-07-06T04:35:18.832Z,14.32
2016-07-06T04:36:18.794Z,14.32
2016-07-06T04:37:18.780Z,14.35
2016-07-06T04:38:18.759Z,14.33
2016-07-06T04:39:19.337Z,14.36
2016-07-06T04:40:18.704Z,14.5
2016-07-06T04:41:18.678Z,14.5
2016-07-06T04:42:18.673Z,14.53
2016-07-06T04:43:18.637Z,14.53
2016-07-06T04:44:18.624Z,14.63
2016-07-06T04:45:18.609Z,14.62
2016-07-06T04:46:18.578Z,14.65
2016-07-06T04:47:18.558Z,14.68
2016-07-06T04:48:18.541Z,14.73
2016-07-06T04:49:18.517Z,14.84
2016-07-06T04:50:18.488Z,14.77
2016-07-06T04:51:18.476Z,14.82
2016-07-06T04:52:18.450Z,14.89
2016-07-06T04:53:18.425Z,14.85
2016-07-06T04:54:18.413Z,14.92
2016-07-06T04:55:18.390Z,14.91
2016-07-06T04:56:18.367Z,14.94
2016-07-06T04:57:18.348Z,14.91
2016-07-06T04:58:18.327Z,14.99
2016-07-06T04:59:18.302Z,14.94
2016-07-06T05:00:18.290Z,14.94
2016-07-06T05:01:18.264Z,15.03
2016-07-06T05:02:18.248Z,15.03
2016-07-06T05:03:18.211Z,15.1
2016-07-06T05:04:18.200Z,15.07
2016-07-06T05:05:18.176Z,15.09
2016-07-06T05:06:18.156Z,15.07
2016-07-06T05:07:18.131Z,15.06
2016-07-06T05:08:18.121Z,15.15
2016-07-06T05:09:18.102Z,15.15
2016-07-06T05:10:18.080Z,15.15
2016-07-06T05:11:18.053Z,15.31
2016-07-06T05:12:18.039Z,15.24
2016-07-06T05:13:17.998Z,15.24
2016-07-06T05:14:17.999Z,15.24
2016-07-06T05:15:17.975Z,15.25
2016-07-06T05:16:17.949Z,15.25
2016-07-06T05:17:17.941Z,15.33
2016-07-06T05:18:17.924Z,15.28
2016-07-06T05:19:17.891Z,15.25
2016-07-06T05:20:17.880Z,15.18
2016-07-06T05:21:17.859Z,15.24
2016-07-06T05:22:17.830Z,15.31
2016-07-06T05:23:17.812Z,15.33
2016-07-06T05:24:17.792Z,15.31
2016-07-06T05:25:17.773Z,15.29
2016-07-06T05:26:17.763Z,15.35
2016-07-06T05:27:17.728Z,15.44
2016-07-06T05:28:17.708Z,15.44
2016-07-06T05:29:17.689Z,15.37
2016-07-06T05:30:17.666Z,15.44
2016-07-06T05:31:17.651Z,15.54
2016-07-06T05:32:17.624Z,15.7
2016-07-06T05:33:17.605Z,15.73
2016-07-06T05:34:17.586Z,15.67
2016-07-06T05:35:17.570Z,15.83
2016-07-06T05:36:17.532Z,15.77
2016-07-06T05:37:17.528Z,15.77
2016-07-06T05:38:17.513Z,15.86
2016-07-06T05:39:17.490Z,15.84
2016-07-06T05:40:17.474Z,15.92
2016-07-06T05:41:17.453Z,16.02
2016-07-06T05:42:17.431Z,16.08
2016-07-06T05:43:17.418Z,16.23
2016-07-06T05:44:17.388Z,16.32
2016-07-06T05:45:18.111Z,16.39
2016-07-06T05:46:17.356Z,16.39
2016-07-06T05:47:17.328Z,16.51
2016-07-06T05:48:17.318Z,16.51
2016-07-06T05:49:17.304Z,16.65
2016-07-06T05:50:17.281Z,16.57
2016-07-06T05:51:17.266Z,16.64
2016-07-06T05:52:17.250Z,16.66
2016-07-06T05:53:17.227Z,16.74
2016-07-06T05:54:17.215Z,16.72
2016-07-06T05:55:17.194Z,16.84
2016-07-06T05:56:17.175Z,16.87
2016-07-06T05:57:17.153Z,16.89
2016-07-06T05:58:17.137Z,16.91
2016-07-06T05:59:17.102Z,16.91
2016-07-06T06:00:17.102Z,16.86
2016-07-06T06:01:17.084Z,17.01
2016-07-06T06:02:17.068Z,16.86
2016-07-06T06:03:17.049Z,16.9
2016-07-06T06:04:17.023Z,16.89
2016-07-06T06:05:17.014Z,16.97
2016-07-06T06:06:16.996Z,16.96
2016-07-06T06:07:16.975Z,16.87
2016-07-06T06:08:16.959Z,16.94
2016-07-06T06:09:16.943Z,16.99
2016-07-06T06:10:16.923Z,16.99
2016-07-06T06:11:16.907Z,16.93
2016-07-06T06:12:16.873Z,16.94
2016-07-06T06:13:16.857Z,16.99
2016-07-06T06:14:16.850Z,16.96
2016-07-06T06:15:16.830Z,16.96
2016-07-06T06:16:16.808Z,16.89
2016-07-06T06:17:16.792Z,16.86
2016-07-06T06:18:16.770Z,16.75
2016-07-06T06:19:16.757Z,16.75
2016-07-06T06:20:16.739Z,16.72
2016-07-06T06:21:16.725Z,16.83
2016-07-06T06:22:16.699Z,16.84
2016-07-06T06:23:16.683Z,16.86
2016-07-06T06:24:16.670Z,16.99
2016-07-06T06:25:16.653Z,17.02
2016-07-06T06:26:16.635Z,16.86
2016-07-06T06:27:16.620Z,16.94
2016-07-06T06:28:16.607Z,16.89
2016-07-06T06:29:16.586Z,17.02
2016-07-06T06:30:16.565Z,17.01
2016-07-06T06:31:16.546Z,16.9
2016-07-06T06:32:16.532Z,17.01
2016-07-06T06:33:16.508Z,17.01
2016-07-06T06:34:16.485Z,17.19
2016-07-06T06:35:16.473Z,17.26
2016-07-06T06:36:16.460Z,17.41
2016-07-06T06:37:16.453Z,17.42
2016-07-06T06:38:16.415Z,17.59
2016-07-06T06:39:16.411Z,17.67
2016-07-06T06:40:16.397Z,17.72
2016-07-06T06:41:16.375Z,17.76
2016-07-06T06:42:16.361Z,17.76
2016-07-06T06:43:16.347Z,17.76
2016-07-06T06:44:16.331Z,17.76
2016-07-06T06:45:16.312Z,17.95
2016-07-06T06:46:16.299Z,18.04
2016-07-06T06:47:16.283Z,18.07
2016-07-06T06:48:16.268Z,18.04
2016-07-06T06:49:16.255Z,18.18
2016-07-06T06:50:16.216Z,18.1
2016-07-06T06:51:16.226Z,18.16
2016-07-06T06:52:16.206Z,18.19
2016-07-06T06:53:16.792Z,18.04
2016-07-06T06:54:16.166Z,18.05
2016-07-06T06:55:16.155Z,18.08
2016-07-06T06:56:16.137Z,18.15
2016-07-06T06:57:16.108Z,17.98
2016-07-06T06:58:16.098Z,17.97
2016-07-06T06:59:16.080Z,17.89
2016-07-06T07:00:16.075Z,17.98
2016-07-06T07:01:16.058Z,18
2016-07-06T07:02:16.033Z,18.07
2016-07-06T07:03:16.024Z,18.19
2016-07-06T07:04:16.005Z,18.08
2016-07-06T07:05:15.999Z,18
2016-07-06T07:06:15.978Z,17.98
2016-07-06T07:07:15.960Z,17.98
2016-07-06T07:08:15.944Z,17.9
2016-07-06T07:09:16.527Z,17.8
2016-07-06T07:10:15.907Z,17.82
2016-07-06T07:11:15.901Z,17.82
2016-07-06T07:12:15.870Z,17.86
2016-07-06T07:13:15.859Z,17.97
2016-07-06T07:14:15.850Z,18.05
2016-07-06T07:15:15.835Z,18.22
2016-07-06T07:16:15.826Z,18.35
2016-07-06T07:17:15.806Z,18.41
2016-07-06T07:18:15.790Z,18.52
2016-07-06T07:19:15.768Z,18.44
2016-07-06T07:20:15.759Z,18.63
2016-07-06T07:21:15.749Z,18.53
2016-07-06T07:22:15.728Z,18.45
2016-07-06T07:23:15.715Z,18.4
2016-07-06T07:24:15.695Z,18.18
2016-07-06T07:25:15.684Z,18.18
2016-07-06T07:26:15.646Z,18.2
2016-07-06T07:27:15.655Z,18.25
2016-07-06T07:28:16.235Z,18.34
2016-07-06T07:29:15.617Z,18.29
2016-07-06T07:30:15.605Z,18.26
2016-07-06T07:31:15.596Z,18.35
2016-07-06T07:32:16.175Z,18.37
2016-07-06T07:33:15.561Z,18.49
2016-07-06T07:34:15.545Z,18.55
2016-07-06T07:35:16.135Z,18.56
2016-07-06T07:36:15.518Z,18.65
2016-07-06T07:37:15.483Z,18.83
2016-07-06T07:38:15.478Z,18.92
2016-07-06T07:39:15.464Z,18.99
2016-07-06T07:40:15.463Z,19
2016-07-06T07:41:15.444Z,19.18
2016-07-06T07:42:15.427Z,19.19
2016-07-06T07:43:15.411Z,19.18
2016-07-06T07:44:15.407Z,19.19
2016-07-06T07:45:15.390Z,19.27
2016-07-06T07:46:15.362Z,19.29
2016-07-06T07:47:15.366Z,19.4
2016-07-06T07:48:15.355Z,19.44
2016-07-06T07:49:15.336Z,19.49
2016-07-06T07:50:15.332Z,19.51
2016-07-06T07:51:15.311Z,19.56
2016-07-06T07:52:15.303Z,19.66
2016-07-06T07:53:15.281Z,19.74
2016-07-06T07:54:15.269Z,19.74
2016-07-06T07:55:15.252Z,19.85
2016-07-06T07:56:15.236Z,19.89
2016-07-06T07:57:15.224Z,20.03
2016-07-06T07:58:15.209Z,20.06
2016-07-06T07:59:15.194Z,20.22
2016-07-06T08:00:15.177Z,20.22
2016-07-06T08:01:15.172Z,20.18
2016-07-06T08:02:15.164Z,20.1
2016-07-06T08:03:15.751Z,20.18
2016-07-06T08:04:15.136Z,20.37
2016-07-06T08:05:15.130Z,20.43
2016-07-06T08:06:15.114Z,20.48
2016-07-06T08:07:15.103Z,20.5
2016-07-06T08:08:15.091Z,20.55
2016-07-06T08:09:15.080Z,20.56
2016-07-06T08:10:15.056Z,20.56
2016-07-06T08:11:15.102Z,20.52
2016-07-06T08:12:15.648Z,20.37
2016-07-06T08:13:15.025Z,20.43
2016-07-06T08:14:15.015Z,20.29
2016-07-06T08:15:16.241Z,20.19
2016-07-06T08:16:15.638Z,20.09
2016-07-06T08:17:16.236Z,20.19
2016-07-06T08:18:14.998Z,20.21
2016-07-06T08:19:15.581Z,20.26
2016-07-06T08:20:16.168Z,20.28
2016-07-06T08:21:14.977Z,20.39
2016-07-06T08:22:15.556Z,20.51
2016-07-06T08:23:15.550Z,20.52
2016-07-06T08:24:16.154Z,20.55
2016-07-06T08:25:14.902Z,20.52
2016-07-06T08:26:14.871Z,20.58
2016-07-06T08:27:14.910Z,20.63
2016-07-06T08:28:14.846Z,20.69
2016-07-06T08:29:14.840Z,20.72
2016-07-06T08:30:14.818Z,20.81
2016-07-06T08:31:14.817Z,20.96
2016-07-06T08:32:14.810Z,21.14
2016-07-06T08:33:14.813Z,21.32
2016-07-06T08:34:15.980Z,21.55
2016-07-06T08:35:14.777Z,21.7
2016-07-06T08:36:15.344Z,21.88
2016-07-06T08:37:14.755Z,21.76
2016-07-06T08:38:14.747Z,21.66
2016-07-06T08:39:14.732Z,21.64
2016-07-06T08:40:14.709Z,21.51
2016-07-06T08:41:14.704Z,21.6
2016-07-06T08:42:14.694Z,21.91
2016-07-06T08:43:14.686Z,22
2016-07-06T08:44:14.671Z,21.93
2016-07-06T08:45:14.665Z,21.8
2016-07-06T08:46:14.662Z,21.6
2016-07-06T08:47:14.644Z,21.48
2016-07-06T08:48:14.636Z,21.43
2016-07-06T08:49:14.626Z,21.52
2016-07-06T08:50:14.611Z,21.64
2016-07-06T08:51:14.603Z,21.7
2016-07-06T08:52:14.576Z,21.73
2016-07-06T08:53:14.570Z,21.72
2016-07-06T08:54:14.559Z,21.61
2016-07-06T08:55:14.564Z,21.62
2016-07-06T08:56:15.159Z,21.62
2016-07-06T08:57:15.155Z,21.66
2016-07-06T08:58:14.545Z,21.51
2016-07-06T08:59:14.539Z,21.45
2016-07-06T09:00:14.499Z,21.52
2016-07-06T09:01:14.501Z,21.45
2016-07-06T09:02:15.321Z,21.54
2016-07-06T09:03:15.277Z,21.48
2016-07-06T09:04:15.376Z,21.5
2016-07-06T09:05:15.394Z,21.58
2016-07-06T09:06:14.717Z,21.61
2016-07-06T09:07:15.359Z,21.67
2016-07-06T09:08:15.041Z,21.64
2016-07-06T09:09:15.634Z,21.64
2016-07-06T09:10:14.397Z,21.61
2016-07-06T09:11:15.026Z,21.62
2016-07-06T09:12:14.380Z,21.72
2016-07-06T09:13:14.984Z,21.85
2016-07-06T09:14:14.976Z,21.95
2016-07-06T09:15:15.571Z,22.11
2016-07-06T09:16:14.353Z,22.32
2016-07-06T09:17:14.922Z,22.33
2016-07-06T09:18:14.316Z,22.62
2016-07-06T09:19:14.915Z,22.7
2016-07-06T09:20:14.321Z,22.62
2016-07-06T09:21:14.279Z,22.72
2016-07-06T09:22:14.905Z,22.65
2016-07-06T09:23:14.271Z,22.69
2016-07-06T09:24:14.275Z,22.65
2016-07-06T09:25:14.271Z,22.7
2016-07-06T09:26:14.858Z,22.7
2016-07-06T09:27:14.244Z,22.69
2016-07-06T09:28:15.455Z,22.59
2016-07-06T09:29:14.259Z,22.59
2016-07-06T09:30:14.826Z,22.54
2016-07-06T09:31:14.225Z,22.57
2016-07-06T09:32:14.812Z,22.57
2016-07-06T09:33:14.167Z,22.65
2016-07-06T09:34:14.789Z,22.88
2016-07-06T09:35:14.774Z,23.25
2016-07-06T09:36:14.153Z,23.54
2016-07-06T09:37:15.370Z,23.58
2016-07-06T09:38:14.130Z,23.51
2016-07-06T09:39:14.192Z,23.47
2016-07-06T09:40:14.131Z,23.4
2016-07-06T09:41:14.124Z,23.4
2016-07-06T09:42:15.339Z,23.54
2016-07-06T09:43:15.533Z,23.55
2016-07-06T09:44:15.529Z,23.4
2016-07-06T09:45:15.088Z,23.25
2016-07-06T09:46:15.426Z,23.13
2016-07-06T09:47:15.417Z,23.05
2016-07-06T09:48:15.700Z,22.96
2016-07-06T09:49:15.717Z,22.83
2016-07-06T09:50:15.035Z,22.63
2016-07-06T09:51:14.840Z,22.59
2016-07-06T09:52:15.010Z,22.48
2016-07-06T09:53:14.872Z,22.28
2016-07-06T09:54:14.007Z,22.15
2016-07-06T09:55:14.587Z,22.2
2016-07-06T09:56:14.584Z,22.22
2016-07-06T09:57:14.007Z,22.28
2016-07-06T09:58:14.553Z,22.29
2016-07-06T09:59:13.961Z,22.22
2016-07-06T10:00:14.561Z,22.14
2016-07-06T10:01:13.930Z,22.07
2016-07-06T10:02:14.517Z,21.79
2016-07-06T10:03:15.106Z,21.72
2016-07-06T10:04:13.885Z,21.6
2016-07-06T10:05:13.860Z,21.52
2016-07-06T10:06:13.868Z,21.42
2016-07-06T10:07:13.829Z,21.39
2016-07-06T10:08:14.424Z,21.39
2016-07-06T10:09:13.816Z,21.46
2016-07-06T10:10:13.812Z,21.39
2016-07-06T10:11:13.821Z,21.45
2016-07-06T10:12:13.797Z,21.24
2016-07-06T10:13:13.770Z,21.39
2016-07-06T10:14:13.779Z,21.51
2016-07-06T10:15:14.362Z,21.61
2016-07-06T10:16:14.986Z,21.72
2016-07-06T10:17:13.713Z,21.88
2016-07-06T10:18:14.331Z,21.99
2016-07-06T10:19:14.291Z,22.07
2016-07-06T10:20:13.683Z,22.14
2016-07-06T10:21:14.312Z,22.41
2016-07-06T10:22:14.281Z,22.38
2016-07-06T10:23:14.865Z,22.45
2016-07-06T10:24:13.653Z,22.38
2016-07-06T10:25:13.634Z,22.39
2016-07-06T10:26:14.239Z,22.44
2016-07-06T10:27:14.252Z,22.43
2016-07-06T10:28:13.584Z,22.62
2016-07-06T10:29:14.216Z,22.69
2016-07-06T10:30:14.240Z,22.68
2016-07-06T10:31:13.581Z,22.66
2016-07-06T10:32:14.192Z,22.62
2016-07-06T10:33:13.562Z,22.65
2016-07-06T10:34:14.156Z,22.69
2016-07-06T10:35:13.546Z,22.73
2016-07-06T10:36:13.539Z,22.8
2016-07-06T10:37:14.121Z,22.8
2016-07-06T10:38:13.501Z,22.68
2016-07-06T10:39:14.105Z,22.85
2016-07-06T10:40:14.080Z,23.09
2016-07-06T10:41:15.125Z,23.31
2016-07-06T10:42:14.473Z,23.5
2016-07-06T10:43:13.443Z,23.83
2016-07-06T10:44:13.430Z,24.02
2016-07-06T10:45:13.427Z,24.36
2016-07-06T10:46:14.050Z,24.21
2016-07-06T10:47:13.398Z,23.91
2016-07-06T10:48:13.389Z,23.69
2016-07-06T10:49:13.381Z,23.56
2016-07-06T10:50:13.378Z,23.27
2016-07-06T10:51:13.363Z,23.18
2016-07-06T10:52:13.353Z,23.17
2016-07-06T10:53:13.344Z,22.99
2016-07-06T10:54:13.331Z,22.98
2016-07-06T10:55:13.327Z,22.88
2016-07-06T10:56:13.627Z,22.8
2016-07-06T10:57:13.307Z,22.8
2016-07-06T10:58:13.293Z,22.78
2016-07-06T10:59:15.444Z,22.94
2016-07-06T11:00:13.277Z,22.9
2016-07-06T11:01:13.270Z,22.84
2016-07-06T11:02:13.250Z,22.91
2016-07-06T11:03:13.239Z,23.09
2016-07-06T11:04:13.228Z,23.31
2016-07-06T11:05:13.230Z,23.46
2016-07-06T11:06:13.211Z,23.63
2016-07-06T11:07:13.201Z,23.91
2016-07-06T11:08:13.191Z,24.05
2016-07-06T11:09:13.184Z,24.17
2016-07-06T11:10:13.178Z,24.33
2016-07-06T11:11:13.176Z,24.53
2016-07-06T11:12:13.164Z,24.66
2016-07-06T11:13:13.158Z,24.88
2016-07-06T11:14:13.149Z,25.08
2016-07-06T11:15:13.142Z,25.33
2016-07-06T11:16:13.134Z,25.41
2016-07-06T11:17:13.127Z,25.23
2016-07-06T11:18:13.128Z,25.22
2016-07-06T11:19:13.122Z,25.23
2016-07-06T11:20:13.115Z,25.01
2016-07-06T11:21:13.107Z,24.92
2016-07-06T11:22:13.106Z,24.92
2016-07-06T11:23:13.098Z,24.85
2016-07-06T11:24:13.094Z,25.08
2016-07-06T11:25:13.094Z,25.1
2016-07-06T11:26:13.083Z,25.13
2016-07-06T11:27:13.076Z,25.07
2016-07-06T11:28:13.075Z,25.13
2016-07-06T11:29:13.062Z,25.06
2016-07-06T11:30:13.054Z,25.07
2016-07-06T11:31:13.051Z,24.98
2016-07-06T11:32:13.027Z,24.89
2016-07-06T11:33:13.024Z,24.99
2016-07-06T11:34:13.023Z,24.98
2016-07-06T11:35:13.022Z,25.07
2016-07-06T11:36:13.016Z,25.14
2016-07-06T11:37:13.011Z,25.5
2016-07-06T11:38:12.996Z,25.41
2016-07-06T11:39:13.003Z,25.5
2016-07-06T11:40:12.998Z,25.53
2016-07-06T11:41:12.982Z,25.63
2016-07-06T11:42:12.976Z,25.81
2016-07-06T11:43:12.990Z,25.95
2016-07-06T11:44:12.976Z,25.99
2016-07-06T11:45:12.974Z,26.31
2016-07-06T11:46:12.979Z,26.38
2016-07-06T11:47:12.954Z,26.33
2016-07-06T11:48:12.955Z,26.25
2016-07-06T11:49:12.950Z,26.22
2016-07-06T11:50:12.943Z,26.37
2016-07-06T11:51:12.943Z,26.15
2016-07-06T11:52:12.939Z,25.88
2016-07-06T11:53:12.929Z,25.84
2016-07-06T11:54:12.928Z,25.72
2016-07-06T11:55:12.923Z,25.75
2016-07-06T11:56:12.917Z,25.77
2016-07-06T11:57:12.916Z,25.77
2016-07-06T11:58:12.911Z,25.7
2016-07-06T11:59:12.906Z,25.84
2016-07-06T12:00:12.901Z,25.7
2016-07-06T12:01:12.897Z,25.59
2016-07-06T12:02:12.897Z,25.18
2016-07-06T12:03:12.904Z,24.98
2016-07-06T12:04:12.899Z,24.84
2016-07-06T12:05:12.887Z,24.66
2016-07-06T12:06:12.880Z,24.51
2016-07-06T12:07:12.877Z,24.45
2016-07-06T12:08:12.854Z,24.48
2016-07-06T12:09:12.847Z,24.8
2016-07-06T12:10:12.856Z,25.01
2016-07-06T12:11:12.837Z,25.07
2016-07-06T12:12:12.831Z,25.23
2016-07-06T12:13:12.825Z,25.29
2016-07-06T12:14:12.824Z,25.35
2016-07-06T12:15:12.819Z,25.46
2016-07-06T12:16:12.818Z,25.33
2016-07-06T12:17:12.800Z,25.25
2016-07-06T12:18:12.799Z,25.18
2016-07-06T12:19:12.786Z,24.91
2016-07-06T12:20:12.771Z,24.76
2016-07-06T12:21:12.766Z,24.32
2016-07-06T12:22:12.764Z,24.14
2016-07-06T12:23:12.755Z,23.96
2016-07-06T12:24:12.750Z,23.77
2016-07-06T12:25:12.730Z,23.78
2016-07-06T12:26:12.735Z,23.91
2016-07-06T12:27:12.729Z,24.03
2016-07-06T12:28:12.721Z,24.1
2016-07-06T12:29:12.710Z,24.33
2016-07-06T12:30:12.703Z,24.54
2016-07-06T12:31:12.676Z,24.84
2016-07-06T12:32:12.681Z,24.91
2016-07-06T12:33:12.680Z,24.96
2016-07-06T12:34:12.673Z,25.1
2016-07-06T12:35:12.649Z,25.26
2016-07-06T12:36:12.656Z,25.4
2016-07-06T12:37:12.647Z,25.25
2016-07-06T12:38:12.629Z,25.18
2016-07-06T12:39:12.641Z,25.13
2016-07-06T12:40:12.629Z,24.93
2016-07-06T12:41:12.601Z,24.92
2016-07-06T12:42:12.602Z,24.88
2016-07-06T12:43:12.583Z,24.8
2016-07-06T12:44:12.579Z,24.68
2016-07-06T12:45:12.572Z,24.69
2016-07-06T12:46:13.163Z,24.63
2016-07-06T12:47:12.563Z,24.54
2016-07-06T12:48:12.539Z,24.57
2016-07-06T12:49:12.528Z,24.73
2016-07-06T12:50:12.517Z,24.92
2016-07-06T12:51:12.504Z,24.95
2016-07-06T12:52:12.493Z,25.07
2016-07-06T12:53:12.505Z,25.33
2016-07-06T12:54:12.503Z,25.53
2016-07-06T12:55:12.483Z,25.58
2016-07-06T12:56:12.480Z,25.62